KMGC/MGC METAR and TAF weather

Enter ICAO airport designator
Station Type Date Time Source
KMGC METAR 2019/02/18 04:35 UTC NOAA

KMGC 180435Z AUTO 00000KT 4SM -SN BKN033 BKN040 OVC048 M03/M06 A2992 RMK AO2


Station Type Date Time Source
KMGC Decoded METAR 2019/02/18 04:35 UTC NOAA

Station name not available
Feb 17, 2019 - 11:35 PM EST / 2019.02.18 0435 UTC
Wind: Calm:0
Visibility: 4 mile(s):0
Sky conditions: overcast
Weather: light snow
Temperature: 26 F (-3 C)
Dew Point: 21 F (-6 C)
Relative Humidity: 79%
Pressure (altimeter): 29.92 in. Hg (1013 hPa)
ob: KMGC 180435Z AUTO 00000KT 4SM -SN BKN033 BKN040 OVC048 M03/M06 A2992 RMK AO2
cycle: 4

Station Type Date Time Source
KMGC TAF UTC NOAA

Error!


Example: see airport list